Avo Ricardo — CUCK5 — position and weather

sailwx.info

Track history (hours):
 
Tides and Currents Weather Stations Pressure Air Temp Water Temp Dewpoint Dewpoint Depression Visibility Wind Speed Wind Dir Waves Ship Positions

Avo Ricardo

Last reported at 2017-Sep-08 03:52 UTC. Time now 2017-Sep-22 04:43 UTC.
Position N 39°40' W 009°14'.
Warning: this ship's position is 14 days out of date.

Length 20 m.

Type: Fishing. MMSI: 263359000.

Date/timePositionNaut miles runAvg speedWind from/ knotsBaromVisibWave heightAir tempDewpointWater temp
2017-Sep-08 03:52N 39°40' W 009°14'2 6.0
2017-Sep-08 03:30N 39°39' W 009°16'2 4.4
2017-Sep-08 02:57N 39°39' W 009°13'3 5.8
2017-Sep-08 02:29N 39°38' W 009°11'1 0.1
2017-Sep-07 15:07N 39°38' W 009°09'1 7.8
2017-Sep-07 14:58N 39°38' W 009°10'3 7.5
2017-Sep-07 14:31N 39°40' W 009°14'0 0.7
2017-Sep-07 13:50N 39°40' W 009°14'0 1.0
2017-Sep-07 13:30N 39°40' W 009°15'1 1.1
2017-Sep-07 13:00N 39°39' W 009°15'1 1.0
2017-Sep-07 12:30N 39°39' W 009°16'0 1.0
2017-Sep-07 12:00N 39°39' W 009°16'0 1.0
2017-Sep-07 11:30N 39°38' W 009°16'0 1.0
2017-Sep-07 11:00N 39°38' W 009°17'1 1.0
2017-Sep-07 10:30N 39°38' W 009°16'0 0.8
2017-Sep-07 10:00N 39°39' W 009°16'3 5.3
2017-Sep-07 09:29N 39°39' W 009°13'0 0.6
2017-Sep-07 09:00N 39°39' W 009°12'0 0.5
2017-Sep-07 08:30N 39°39' W 009°13'0 0.7
2017-Sep-07 08:00N 39°39' W 009°13'3 4.6
2017-Sep-07 07:27N 39°36' W 009°12'1 1.2
2017-Sep-07 07:00N 39°35' W 009°12'2 3.3
2017-Sep-07 06:23N 39°37' W 009°14'7 0.4
2017-Sep-06 14:10N 39°38' W 009°23'  
Track history (hours):
 
Tides and Currents Weather Stations Pressure Air Temp Water Temp Dewpoint Dewpoint Depression Visibility Wind Speed Wind Dir Waves Ship Positions

Avo Ricardo

Last reported at 2017-Sep-08 03:52 UTC. Time now 2017-Sep-22 04:43 UTC.
Position N 39°40' W 009°14'.
Warning: this ship's position is 14 days out of date.

Length 20 m.

Type: Fishing. MMSI: 263359000.

Date/timePositionNaut miles runAvg speedWind from/ knotsBaromVisibWave heightAir tempDewpointWater temp
2017-Sep-08 03:52N 39°40' W 009°14'2 6.0
2017-Sep-08 03:30N 39°39' W 009°16'2 4.4
2017-Sep-08 02:57N 39°39' W 009°13'3 5.8
2017-Sep-08 02:29N 39°38' W 009°11'1 0.1
2017-Sep-07 15:07N 39°38' W 009°09'1 7.8
2017-Sep-07 14:58N 39°38' W 009°10'3 7.5
2017-Sep-07 14:31N 39°40' W 009°14'0 0.7
2017-Sep-07 13:50N 39°40' W 009°14'0 1.0
2017-Sep-07 13:30N 39°40' W 009°15'1 1.1
2017-Sep-07 13:00N 39°39' W 009°15'1 1.0
2017-Sep-07 12:30N 39°39' W 009°16'0 1.0
2017-Sep-07 12:00N 39°39' W 009°16'0 1.0
2017-Sep-07 11:30N 39°38' W 009°16'0 1.0
2017-Sep-07 11:00N 39°38' W 009°17'1 1.0
2017-Sep-07 10:30N 39°38' W 009°16'0 0.8
2017-Sep-07 10:00N 39°39' W 009°16'3 5.3
2017-Sep-07 09:29N 39°39' W 009°13'0 0.6
2017-Sep-07 09:00N 39°39' W 009°12'0 0.5
2017-Sep-07 08:30N 39°39' W 009°13'0 0.7
2017-Sep-07 08:00N 39°39' W 009°13'3 4.6
2017-Sep-07 07:27N 39°36' W 009°12'1 1.2
2017-Sep-07 07:00N 39°35' W 009°12'2 3.3
2017-Sep-07 06:23N 39°37' W 009°14'7 0.4
2017-Sep-06 14:10N 39°38' W 009°23'  

Dump ship's entire track history